createdAt,value
2022-11-24T10:04:45.571Z,9.80
2022-11-24T10:07:27.111Z,9.90
2022-11-24T10:10:06.072Z,9.90
2022-11-24T10:12:50.119Z,10.00
2022-11-24T10:15:33.665Z,10.00
2022-11-24T10:18:26.708Z,10.10
2022-11-24T10:21:13.047Z,10.20
2022-11-24T10:24:07.185Z,10.20
2022-11-24T10:26:40.267Z,10.20
2022-11-24T10:29:22.980Z,9.70
2022-11-24T10:31:57.554Z,10.30
2022-11-24T10:34:34.990Z,10.30
2022-11-24T10:37:14.627Z,10.30
2022-11-24T10:39:58.578Z,10.30
2022-11-24T10:42:36.863Z,10.40
2022-11-24T10:45:18.449Z,10.30
2022-11-24T10:47:49.592Z,10.30
2022-11-24T10:50:24.859Z,10.40
2022-11-24T10:53:08.052Z,10.40
2022-11-24T10:56:04.577Z,10.40
2022-11-24T10:58:38.392Z,10.40
2022-11-24T11:01:32.822Z,10.30
2022-11-24T11:04:04.240Z,10.30
2022-11-24T11:06:38.040Z,10.30
2022-11-24T11:09:22.805Z,10.40
2022-11-24T11:11:56.950Z,11.00
2022-11-24T11:14:35.653Z,10.70
2022-11-24T11:17:37.664Z,10.70
2022-11-24T11:20:19.345Z,10.80
2022-11-24T11:22:51.922Z,11.20
2022-11-24T11:25:35.135Z,10.90
2022-11-24T11:31:25.615Z,11.00
2022-11-24T11:34:04.982Z,11.00
2022-11-24T11:36:39.219Z,11.10
2022-11-24T11:39:21.406Z,11.10
2022-11-24T11:42:01.691Z,11.20
2022-11-24T11:44:39.092Z,11.20
2022-11-24T11:47:20.676Z,11.10
2022-11-24T11:49:53.017Z,11.10
2022-11-24T11:52:46.507Z,11.20
2022-11-24T11:55:34.550Z,11.30
2022-11-24T11:58:26.715Z,11.40
2022-11-24T12:01:05.370Z,11.30
2022-11-24T12:03:49.143Z,11.30
2022-11-24T12:06:34.008Z,11.40
2022-11-24T20:50:52.134Z,8.60
2022-11-24T20:53:24.299Z,8.60
2022-11-24T20:55:55.044Z,8.50
2022-11-24T20:58:25.879Z,8.50
2022-11-24T21:00:58.105Z,8.50
2022-11-24T21:03:29.639Z,8.50
2022-11-24T21:06:03.992Z,8.50
2022-11-24T21:08:35.567Z,8.50
2022-11-24T21:11:11.272Z,8.50
2022-11-24T21:13:44.535Z,8.50
2022-11-24T21:16:19.088Z,8.50
2022-11-24T21:18:53.123Z,8.50
2022-11-24T21:21:27.754Z,8.50
2022-11-24T21:23:58.530Z,8.60
2022-11-24T21:26:31.033Z,8.50
2022-11-24T21:29:01.797Z,8.50
2022-11-24T21:31:32.767Z,8.50
2022-11-24T21:34:03.559Z,8.50
2022-11-24T21:36:40.748Z,8.50
2022-11-24T21:39:15.277Z,8.50
2022-11-24T21:41:46.177Z,8.60
2022-11-24T21:44:17.670Z,8.60
2022-11-24T21:46:54.355Z,8.60
2022-11-24T21:49:28.996Z,8.60
2022-11-24T21:52:02.866Z,8.50
2022-11-24T21:54:34.081Z,8.60
2022-11-24T21:57:05.177Z,8.60
2022-11-24T21:59:35.997Z,8.90
2022-11-24T22:02:12.843Z,8.60
2022-11-24T22:04:46.658Z,8.60
2022-11-24T22:07:24.034Z,8.60
2022-11-24T22:09:54.837Z,8.60
2022-11-24T22:12:25.655Z,8.60
2022-11-24T22:14:56.423Z,8.70
2022-11-24T22:17:29.995Z,8.60
2022-11-24T22:20:00.789Z,8.60
2022-11-24T22:22:34.150Z,8.60
2022-11-24T22:25:04.954Z,8.60
2022-11-24T22:27:35.846Z,8.60
2022-11-24T22:30:07.123Z,8.60
2022-11-24T22:32:38.091Z,8.60
2022-11-24T22:35:11.865Z,8.60
2022-11-24T22:37:45.239Z,8.60
2022-11-24T22:40:16.269Z,8.60
2022-11-24T22:42:48.677Z,8.60
2022-11-24T22:45:19.539Z,8.60
2022-11-24T22:47:50.406Z,8.60
2022-11-24T22:50:22.685Z,8.60
2022-11-24T22:52:57.196Z,8.60
2022-11-24T22:55:27.978Z,8.60
2022-11-24T22:57:58.687Z,8.60
2022-11-24T23:00:31.136Z,8.70
2022-11-24T23:03:01.996Z,8.60
2022-11-24T23:05:35.065Z,8.60
2022-11-24T23:08:08.439Z,8.60
2022-11-24T23:10:39.810Z,8.60
2022-11-24T23:13:10.549Z,8.90
2022-11-24T23:15:41.346Z,9.00
2022-11-24T23:18:12.294Z,8.60
2022-11-24T23:20:43.255Z,8.60
2022-11-24T23:23:22.805Z,8.60
2022-11-24T23:25:53.786Z,8.70
2022-11-24T23:28:26.685Z,8.70
2022-11-24T23:31:03.183Z,8.70
2022-11-24T23:33:34.921Z,8.70
2022-11-24T23:36:09.734Z,8.70
2022-11-24T23:38:43.506Z,8.70
2022-11-24T23:41:18.463Z,8.70
2022-11-24T23:43:49.593Z,8.80
2022-11-24T23:46:23.541Z,8.80
2022-11-24T23:48:55.931Z,8.80
2022-11-24T23:51:28.842Z,8.80
2022-11-24T23:54:06.217Z,8.90
2022-11-24T23:56:37.569Z,8.90
2022-11-24T23:59:08.318Z,8.80
